sensor_id;sensor_type;location;lat;lon;timestamp;pressure;altitude;pressure_sealevel;temperature;humidity
60240;BME280;46102;39.012;-7.064;2023-09-12T00:01:42;98390.44;;;19.76;75.77
60240;BME280;46102;39.012;-7.064;2023-09-12T00:03:42;98392.81;;;19.74;75.64
60240;BME280;46102;39.012;-7.064;2023-09-12T00:05:51;98383.25;;;19.71;75.91
60240;BME280;46102;39.012;-7.064;2023-09-12T00:07:52;98388.38;;;19.69;75.85
60240;BME280;46102;39.012;-7.064;2023-09-12T00:09:54;98390.38;;;19.69;75.82
60240;BME280;46102;39.012;-7.064;2023-09-12T00:11:54;98391.13;;;19.66;76.18
60240;BME280;46102;39.012;-7.064;2023-09-12T00:13:55;98394.69;;;19.66;76.25
60240;BME280;46102;39.012;-7.064;2023-09-12T00:15:56;98393.91;;;19.66;76.22
60240;BME280;46102;39.012;-7.064;2023-09-12T00:17:57;98395.44;;;19.63;76.54
60240;BME280;46102;39.012;-7.064;2023-09-12T00:19:58;98389.88;;;19.63;76.68
60240;BME280;46102;39.012;-7.064;2023-09-12T00:21:59;98387.50;;;19.62;76.61
60240;BME280;46102;39.012;-7.064;2023-09-12T00:24:00;98389.06;;;19.59;76.89
60240;BME280;46102;39.012;-7.064;2023-09-12T00:26:01;98391.41;;;19.57;76.86
60240;BME280;46102;39.012;-7.064;2023-09-12T00:28:02;98390.59;;;19.56;77.03
60240;BME280;46102;39.012;-7.064;2023-09-12T00:30:04;98389.78;;;19.52;77.31
60240;BME280;46102;39.012;-7.064;2023-09-12T00:32:06;98388.16;;;19.48;77.53
60240;BME280;46102;39.012;-7.064;2023-09-12T00:34:07;98391.66;;;19.45;77.92
60240;BME280;46102;39.012;-7.064;2023-09-12T00:36:07;98393.72;;;19.48;77.97
60240;BME280;46102;39.012;-7.064;2023-09-12T00:38:09;98388.94;;;19.48;78.00
60240;BME280;46102;39.012;-7.064;2023-09-12T00:40:10;98388.94;;;19.48;78.04
60240;BME280;46102;39.012;-7.064;2023-09-12T00:42:11;98393.72;;;19.51;78.16
60240;BME280;46102;39.012;-7.064;2023-09-12T00:44:11;98396.13;;;19.53;78.22
60240;BME280;46102;39.012;-7.064;2023-09-12T00:46:18;98391.38;;;19.53;78.27
60240;BME280;46102;39.012;-7.064;2023-09-12T00:48:20;98394.16;;;19.53;78.38
60240;BME280;46102;39.012;-7.064;2023-09-12T00:50:24;98387.03;;;19.56;78.17
60240;BME280;46102;39.012;-7.064;2023-09-12T00:52:27;98398.56;;;19.54;78.60
60240;BME280;46102;39.012;-7.064;2023-09-12T00:54:30;98396.56;;;19.55;78.71
60240;BME280;46102;39.012;-7.064;2023-09-12T00:56:30;98387.44;;;19.54;78.74
60240;BME280;46102;39.012;-7.064;2023-09-12T00:58:33;98387.38;;;19.51;78.86
60240;BME280;46102;39.012;-7.064;2023-09-12T01:00:33;98398.13;;;19.52;78.81
60240;BME280;46102;39.012;-7.064;2023-09-12T01:02:34;98391.72;;;19.48;79.17
60240;BME280;46102;39.012;-7.064;2023-09-12T01:04:36;98397.31;;;19.52;79.10
60240;BME280;46102;39.012;-7.064;2023-09-12T01:06:37;98392.16;;;19.54;78.92
60240;BME280;46102;39.012;-7.064;2023-09-12T01:08:39;98399.72;;;19.53;78.94
60240;BME280;46102;39.012;-7.064;2023-09-12T01:10:39;98395.34;;;19.52;79.10
60240;BME280;46102;39.012;-7.064;2023-09-12T01:12:45;98390.94;;;19.51;79.24
60240;BME280;46102;39.012;-7.064;2023-09-12T01:14:45;98398.13;;;19.52;79.25
60240;BME280;46102;39.012;-7.064;2023-09-12T01:16:46;98390.94;;;19.51;79.41
60240;BME280;46102;39.012;-7.064;2023-09-12T01:18:47;98394.13;;;19.50;79.34
60240;BME280;46102;39.012;-7.064;2023-09-12T01:25:45;98394.56;;;19.55;79.32
60240;BME280;46102;39.012;-7.064;2023-09-12T01:27:55;98389.44;;;19.58;79.59
60240;BME280;46102;39.012;-7.064;2023-09-12T01:29:57;98390.28;;;19.62;79.45
60240;BME280;46102;39.012;-7.064;2023-09-12T01:32:00;98393.47;;;19.64;79.46
60240;BME280;46102;39.012;-7.064;2023-09-12T01:34:12;98397.06;;;19.64;79.55
60240;BME280;46102;39.012;-7.064;2023-09-12T01:36:13;98397.44;;;19.63;79.53
60240;BME280;46102;39.012;-7.064;2023-09-12T01:38:14;98393.47;;;19.64;79.74
60240;BME280;46102;39.012;-7.064;2023-09-12T01:40:15;98391.50;;;19.64;79.57
60240;BME280;46102;39.012;-7.064;2023-09-12T01:42:20;98387.50;;;19.65;79.79
60240;BME280;46102;39.012;-7.064;2023-09-12T01:44:24;98389.88;;;19.63;80.29
60240;BME280;46102;39.012;-7.064;2023-09-12T01:46:26;98390.66;;;19.60;80.41
60240;BME280;46102;39.012;-7.064;2023-09-12T01:48:32;98385.84;;;19.57;81.02
60240;BME280;46102;39.012;-7.064;2023-09-12T01:50:34;98381.81;;;19.51;81.25
60240;BME280;46102;39.012;-7.064;2023-09-12T01:52:36;98383.75;;;19.47;81.67
60240;BME280;46102;39.012;-7.064;2023-09-12T01:54:38;98385.31;;;19.44;82.15
60240;BME280;46102;39.012;-7.064;2023-09-12T01:56:40;98383.31;;;19.45;82.28
60240;BME280;46102;39.012;-7.064;2023-09-12T01:58:41;98377.03;;;19.48;82.05
60240;BME280;46102;39.012;-7.064;2023-09-12T02:00:42;98380.59;;;19.48;82.33
60240;BME280;46102;39.012;-7.064;2023-09-12T02:02:43;98384.59;;;19.51;82.07
60240;BME280;46102;39.012;-7.064;2023-09-12T02:05:02;98370.69;;;19.51;82.06
60240;BME280;46102;39.012;-7.064;2023-09-12T02:07:05;98376.66;;;19.53;81.89
60240;BME280;46102;39.012;-7.064;2023-09-12T02:09:05;98374.69;;;19.53;82.00
60240;BME280;46102;39.012;-7.064;2023-09-12T02:11:06;98371.09;;;19.53;81.71
60240;BME280;46102;39.012;-7.064;2023-09-12T02:13:07;98373.09;;;19.52;82.12
60240;BME280;46102;39.012;-7.064;2023-09-12T02:15:08;98374.69;;;19.53;82.03
60240;BME280;46102;39.012;-7.064;2023-09-12T02:17:09;98369.09;;;19.50;82.33
60240;BME280;46102;39.012;-7.064;2023-09-12T02:19:10;98368.69;;;19.48;82.47
60240;BME280;46102;39.012;-7.064;2023-09-12T02:21:11;98368.69;;;19.48;82.79
60240;BME280;46102;39.012;-7.064;2023-09-12T02:23:12;98369.03;;;19.46;82.75
60240;BME280;46102;39.012;-7.064;2023-09-12T02:25:13;98366.25;;;19.46;82.71
60240;BME280;46102;39.012;-7.064;2023-09-12T02:27:13;98364.25;;;19.43;83.09
60240;BME280;46102;39.012;-7.064;2023-09-12T02:29:14;98365.78;;;19.37;83.30
60240;BME280;46102;39.012;-7.064;2023-09-12T02:31:15;98360.94;;;19.30;83.73
60240;BME280;46102;39.012;-7.064;2023-09-12T02:33:16;98367.66;;;19.29;83.77
60240;BME280;46102;39.012;-7.064;2023-09-12T02:35:17;98353.34;;;19.27;84.02
60240;BME280;46102;39.012;-7.064;2023-09-12T02:37:19;98351.69;;;19.23;84.30
60240;BME280;46102;39.012;-7.064;2023-09-12T02:39:19;98346.53;;;19.21;84.36
60240;BME280;46102;39.012;-7.064;2023-09-12T02:41:20;98357.16;;;19.16;84.59
60240;BME280;46102;39.012;-7.064;2023-09-12T02:43:21;98354.72;;;19.10;84.96
60240;BME280;46102;39.012;-7.064;2023-09-12T02:45:22;98355.06;;;19.05;85.05
60240;BME280;46102;39.012;-7.064;2023-09-12T02:47:23;98353.44;;;19.01;85.60
60240;BME280;46102;39.012;-7.064;2023-09-12T02:49:24;98355.34;;;18.97;86.03
60240;BME280;46102;39.012;-7.064;2023-09-12T02:51:25;98353.72;;;18.92;86.40
60240;BME280;46102;39.012;-7.064;2023-09-12T02:53:26;98356.88;;;18.90;86.51
60240;BME280;46102;39.012;-7.064;2023-09-12T02:55:27;98354.84;;;18.87;86.53
60240;BME280;46102;39.012;-7.064;2023-09-12T02:57:28;98352.44;;;18.86;86.77
60240;BME280;46102;39.012;-7.064;2023-09-12T02:59:29;98356.41;;;18.85;86.83
60240;BME280;46102;39.012;-7.064;2023-09-12T03:01:31;98354.78;;;18.84;86.93
60240;BME280;46102;39.012;-7.064;2023-09-12T03:03:31;98359.91;;;18.82;87.11
60240;BME280;46102;39.012;-7.064;2023-09-12T03:05:33;98349.59;;;18.82;87.00
60240;BME280;46102;39.012;-7.064;2023-09-12T03:07:34;98352.38;;;18.82;86.95
60240;BME280;46102;39.012;-7.064;2023-09-12T03:09:34;98352.00;;;18.84;86.88
60240;BME280;46102;39.012;-7.064;2023-09-12T03:11:35;98352.00;;;18.84;86.84
60240;BME280;46102;39.012;-7.064;2023-09-12T03:13:37;98344.81;;;18.79;87.01
60240;BME280;46102;39.012;-7.064;2023-09-12T03:15:38;98356.28;;;18.78;87.02
60240;BME280;46102;39.012;-7.064;2023-09-12T03:17:39;98357.53;;;18.80;86.91
60240;BME280;46102;39.012;-7.064;2023-09-12T03:19:40;98354.34;;;18.78;87.00
60240;BME280;46102;39.012;-7.064;2023-09-12T03:21:40;98353.16;;;18.79;86.96
60240;BME280;46102;39.012;-7.064;2023-09-12T03:23:41;98345.19;;;18.78;86.92
60240;BME280;46102;39.012;-7.064;2023-09-12T03:25:42;98349.94;;;18.77;86.83
60240;BME280;46102;39.012;-7.064;2023-09-12T03:27:43;98352.72;;;18.77;86.96
60240;BME280;46102;39.012;-7.064;2023-09-12T03:29:47;98349.88;;;18.73;86.86
60240;BME280;46102;39.012;-7.064;2023-09-12T03:31:48;98353.88;;;18.76;86.97
60240;BME280;46102;39.012;-7.064;2023-09-12T03:33:49;98353.88;;;18.76;86.93
60240;BME280;46102;39.012;-7.064;2023-09-12T03:35:51;98351.56;;;18.78;86.88
60240;BME280;46102;39.012;-7.064;2023-09-12T03:37:52;98351.56;;;18.78;86.66
60240;BME280;46102;39.012;-7.064;2023-09-12T03:39:53;98352.34;;;18.79;86.65
60240;BME280;46102;39.012;-7.064;2023-09-12T03:41:54;98354.34;;;18.78;86.63
60240;BME280;46102;39.012;-7.064;2023-09-12T03:43:55;98356.66;;;18.76;86.45
60240;BME280;46102;39.012;-7.064;2023-09-12T03:45:56;98356.16;;;18.70;86.70
60240;BME280;46102;39.012;-7.064;2023-09-12T03:47:57;98348.97;;;18.66;86.95
60240;BME280;46102;39.012;-7.064;2023-09-12T03:49:58;98357.63;;;18.61;87.12
60240;BME280;46102;39.012;-7.064;2023-09-12T03:51:59;98353.19;;;18.56;87.37
60240;BME280;46102;39.012;-7.064;2023-09-12T03:54:00;98361.88;;;18.51;87.78
60240;BME280;46102;39.012;-7.064;2023-09-12T03:56:01;98363.00;;;18.46;88.13
60240;BME280;46102;39.012;-7.064;2023-09-12T03:58:03;98362.13;;;18.42;88.26
60240;BME280;46102;39.012;-7.064;2023-09-12T04:00:05;98357.75;;;18.41;88.36
60240;BME280;46102;39.012;-7.064;2023-09-12T04:02:14;98352.50;;;18.36;88.56
60240;BME280;46102;39.012;-7.064;2023-09-12T04:04:15;98348.88;;;18.32;88.78
60240;BME280;46102;39.012;-7.064;2023-09-12T04:06:15;98356.75;;;18.26;89.24
60240;BME280;46102;39.012;-7.064;2023-09-12T04:08:16;98360.63;;;18.22;89.42
60240;BME280;46102;39.012;-7.064;2023-09-12T04:10:19;98353.81;;;18.19;89.63
60240;BME280;46102;39.012;-7.064;2023-09-12T04:12:20;98357.44;;;18.20;89.45
60240;BME280;46102;39.012;-7.064;2023-09-12T04:14:21;98364.56;;;18.21;89.43
60240;BME280;46102;39.012;-7.064;2023-09-12T04:16:22;98361.78;;;18.21;89.33
60240;BME280;46102;39.012;-7.064;2023-09-12T04:18:23;98358.66;;;18.22;89.36
60240;BME280;46102;39.012;-7.064;2023-09-12T04:20:24;98360.25;;;18.23;89.13
60240;BME280;46102;39.012;-7.064;2023-09-12T04:22:25;98367.41;;;18.24;89.02
60240;BME280;46102;39.012;-7.064;2023-09-12T04:24:26;98368.22;;;18.25;88.86
60240;BME280;46102;39.012;-7.064;2023-09-12T04:26:27;98368.22;;;18.25;88.79
60240;BME280;46102;39.012;-7.064;2023-09-12T04:28:27;98370.19;;;18.24;88.80
60240;BME280;46102;39.012;-7.064;2023-09-12T04:30:28;98371.75;;;18.22;88.53
60240;BME280;46102;39.012;-7.064;2023-09-12T04:32:30;98368.97;;;18.22;88.69
60240;BME280;46102;39.012;-7.064;2023-09-12T04:34:31;98370.13;;;18.21;88.68
60240;BME280;46102;39.012;-7.064;2023-09-12T04:36:32;98366.91;;;18.19;88.89
60240;BME280;46102;39.012;-7.064;2023-09-12T04:38:33;98368.91;;;18.18;89.11
60240;BME280;46102;39.012;-7.064;2023-09-12T04:40:34;98360.94;;;18.17;88.95
60240;BME280;46102;39.012;-7.064;2023-09-12T04:42:34;98358.59;;;18.19;89.03
60240;BME280;46102;39.012;-7.064;2023-09-12T04:44:39;98365.75;;;18.20;89.06
60240;BME280;46102;39.012;-7.064;2023-09-12T04:46:40;98360.56;;;18.18;88.90
60240;BME280;46102;39.012;-7.064;2023-09-12T04:48:41;98358.13;;;18.13;88.94
60240;BME280;46102;39.012;-7.064;2023-09-12T04:50:41;98369.16;;;18.09;89.38
60240;BME280;46102;39.012;-7.064;2023-09-12T04:52:43;98361.19;;;18.08;89.34
60240;BME280;46102;39.012;-7.064;2023-09-12T04:54:44;98363.47;;;18.02;89.79
60240;BME280;46102;39.012;-7.064;2023-09-12T04:56:45;98358.69;;;17.99;89.89
60240;BME280;46102;39.012;-7.064;2023-09-12T04:58:46;98361.81;;;17.98;89.79
60240;BME280;46102;39.012;-7.064;2023-09-12T05:00:47;98359.81;;;17.95;90.08
60240;BME280;46102;39.012;-7.064;2023-09-12T05:02:48;98364.97;;;17.96;89.99
60240;BME280;46102;39.012;-7.064;2023-09-12T05:04:49;98365.34;;;17.95;89.87
60240;BME280;46102;39.012;-7.064;2023-09-12T05:06:50;98361.75;;;17.94;89.88
60240;BME280;46102;39.012;-7.064;2023-09-12T05:08:51;98365.28;;;17.91;90.10
60240;BME280;46102;39.012;-7.064;2023-09-12T05:10:51;98359.28;;;17.89;90.28
60240;BME280;46102;39.012;-7.064;2023-09-12T05:12:52;98356.09;;;17.87;90.41
60240;BME280;46102;39.012;-7.064;2023-09-12T05:14:53;98363.25;;;17.88;90.21
60240;BME280;46102;39.012;-7.064;2023-09-12T05:16:54;98366.03;;;17.88;90.29
60240;BME280;46102;39.012;-7.064;2023-09-12T05:18:55;98371.16;;;17.86;90.32
60240;BME280;46102;39.012;-7.064;2023-09-12T05:20:56;98372.59;;;17.80;90.78
60240;BME280;46102;39.012;-7.064;2023-09-12T05:22:57;98380.13;;;17.79;90.95
60240;BME280;46102;39.012;-7.064;2023-09-12T05:24:58;98379.69;;;17.77;91.07
60240;BME280;46102;39.012;-7.064;2023-09-12T05:26:59;98380.41;;;17.74;91.51
60240;BME280;46102;39.012;-7.064;2023-09-12T05:29:00;98383.56;;;17.73;91.83
60240;BME280;46102;39.012;-7.064;2023-09-12T05:31:01;98383.13;;;17.71;92.05
60240;BME280;46102;39.012;-7.064;2023-09-12T05:33:03;98383.16;;;17.74;91.97
60240;BME280;46102;39.012;-7.064;2023-09-12T05:35:04;98383.69;;;17.80;91.86
60240;BME280;46102;39.012;-7.064;2023-09-12T05:37:05;98392.91;;;17.84;91.72
60240;BME280;46102;39.012;-7.064;2023-09-12T05:39:07;98383.84;;;17.87;91.31
60240;BME280;46102;39.012;-7.064;2023-09-12T05:41:08;98381.94;;;17.91;91.01
60240;BME280;46102;39.012;-7.064;2023-09-12T05:43:08;98393.81;;;17.92;90.56
60240;BME280;46102;39.012;-7.064;2023-09-12T05:45:10;98388.59;;;17.86;90.64
60240;BME280;46102;39.012;-7.064;2023-09-12T05:47:11;98389.22;;;17.80;91.01
60240;BME280;46102;39.012;-7.064;2023-09-12T05:49:12;98389.16;;;17.76;91.11
60240;BME280;46102;39.012;-7.064;2023-09-12T05:51:13;98389.97;;;17.77;91.13
60240;BME280;46102;39.012;-7.064;2023-09-12T05:53:14;98390.34;;;17.75;91.08
60240;BME280;46102;39.012;-7.064;2023-09-12T05:55:15;98392.59;;;17.69;91.17
60240;BME280;46102;39.012;-7.064;2023-09-12T05:57:16;98396.56;;;17.68;91.16
60240;BME280;46102;39.012;-7.064;2023-09-12T05:59:17;98394.16;;;17.67;91.51
60240;BME280;46102;39.012;-7.064;2023-09-12T06:01:18;98398.91;;;17.66;91.42
60240;BME280;46102;39.012;-7.064;2023-09-12T06:03:19;98400.50;;;17.67;91.35
60240;BME280;46102;39.012;-7.064;2023-09-12T06:05:20;98402.84;;;17.65;91.54
60240;BME280;46102;39.012;-7.064;2023-09-12T06:07:21;98400.88;;;17.66;91.36
60240;BME280;46102;39.012;-7.064;2023-09-12T06:09:22;98410.66;;;17.60;91.61
60240;BME280;46102;39.012;-7.064;2023-09-12T06:11:22;98401.19;;;17.61;91.66
60240;BME280;46102;39.012;-7.064;2023-09-12T06:13:23;98411.09;;;17.62;91.79
60240;BME280;46102;39.012;-7.064;2023-09-12T06:15:25;98408.31;;;17.62;91.56
60240;BME280;46102;39.012;-7.064;2023-09-12T06:17:26;98408.84;;;17.67;91.48
60240;BME280;46102;39.012;-7.064;2023-09-12T06:19:26;98414.75;;;17.66;91.30
60240;BME280;46102;39.012;-7.064;2023-09-12T06:21:27;98416.34;;;17.67;91.29
60240;BME280;46102;39.012;-7.064;2023-09-12T06:23:28;98415.09;;;17.64;91.33
60240;BME280;46102;39.012;-7.064;2023-09-12T06:25:29;98417.88;;;17.64;91.52
60240;BME280;46102;39.012;-7.064;2023-09-12T06:27:30;98421.84;;;17.63;91.64
60240;BME280;46102;39.012;-7.064;2023-09-12T06:29:32;98428.09;;;17.60;91.80
60240;BME280;46102;39.012;-7.064;2023-09-12T06:31:32;98423.38;;;17.61;91.83
60240;BME280;46102;39.012;-7.064;2023-09-12T06:33:33;98421.97;;;17.51;92.44
60240;BME280;46102;39.012;-7.064;2023-09-12T06:35:34;98427.09;;;17.49;92.91
60240;BME280;46102;39.012;-7.064;2023-09-12T06:37:35;98434.25;;;17.50;93.39
60240;BME280;46102;39.012;-7.064;2023-09-12T06:39:36;98430.72;;;17.53;93.43
60240;BME280;46102;39.012;-7.064;2023-09-12T06:41:37;98429.19;;;17.56;93.25
60240;BME280;46102;39.012;-7.064;2023-09-12T06:43:37;98437.94;;;17.58;93.13
60240;BME280;46102;39.012;-7.064;2023-09-12T06:45:40;98438.84;;;17.62;92.45
60240;BME280;46102;39.012;-7.064;2023-09-12T06:47:41;98432.94;;;17.63;92.54
60240;BME280;46102;39.012;-7.064;2023-09-12T06:49:41;98433.81;;;17.67;92.34
60240;BME280;46102;39.012;-7.064;2023-09-12T06:51:42;98429.50;;;17.70;92.05
60240;BME280;46102;39.012;-7.064;2023-09-12T06:53:43;98434.66;;;17.72;91.85
60240;BME280;46102;39.012;-7.064;2023-09-12T06:55:44;98435.09;;;17.74;92.26
60240;BME280;46102;39.012;-7.064;2023-09-12T06:57:45;98431.16;;;17.75;92.24
60240;BME280;46102;39.012;-7.064;2023-09-12T06:59:46;98440.34;;;17.79;92.19
60240;BME280;46102;39.012;-7.064;2023-09-12T07:01:49;98443.66;;;17.84;92.40
60240;BME280;46102;39.012;-7.064;2023-09-12T07:03:50;98441.75;;;17.88;92.11
60240;BME280;46102;39.012;-7.064;2023-09-12T07:05:54;98442.63;;;17.93;91.82
60240;BME280;46102;39.012;-7.064;2023-09-12T07:07:55;98445.00;;;17.94;92.20
60240;BME280;46102;39.012;-7.064;2023-09-12T07:09:56;98446.66;;;17.99;92.04
60240;BME280;46102;39.012;-7.064;2023-09-12T07:11:56;98444.72;;;17.99;91.51
60240;BME280;46102;39.012;-7.064;2023-09-12T07:13:57;98447.19;;;18.04;91.52
60240;BME280;46102;39.012;-7.064;2023-09-12T07:15:58;98450.06;;;18.12;91.33
60240;BME280;46102;39.012;-7.064;2023-09-12T07:17:59;98450.59;;;18.17;90.74
60240;BME280;46102;39.012;-7.064;2023-09-12T07:20:00;98456.63;;;18.23;90.33
60240;BME280;46102;39.012;-7.064;2023-09-12T07:22:01;98455.19;;;18.33;90.49
60240;BME280;46102;39.012;-7.064;2023-09-12T07:36:51;98463.34;;;18.95;86.29
60240;BME280;46102;39.012;-7.064;2023-09-12T07:38:52;98462.34;;;19.10;84.92
60240;BME280;46102;39.012;-7.064;2023-09-12T07:40:53;98466.94;;;19.25;84.03
60240;BME280;46102;39.012;-7.064;2023-09-12T07:42:54;98459.13;;;19.38;83.26
60240;BME280;46102;39.012;-7.064;2023-09-12T07:44:55;98466.53;;;19.57;82.54
60240;BME280;46102;39.012;-7.064;2023-09-12T07:46:56;98467.91;;;19.70;81.39
60240;BME280;46102;39.012;-7.064;2023-09-12T07:48:57;98466.44;;;19.80;81.00
60240;BME280;46102;39.012;-7.064;2023-09-12T07:50:58;98466.88;;;19.86;80.09
60240;BME280;46102;39.012;-7.064;2023-09-12T07:52:59;98473.28;;;19.90;79.11
60240;BME280;46102;39.012;-7.064;2023-09-12T07:55:00;98480.56;;;20.02;78.33
60240;BME280;46102;39.012;-7.064;2023-09-12T07:57:02;98472.38;;;20.16;77.66
60240;BME280;46102;39.012;-7.064;2023-09-12T07:59:03;98476.47;;;20.29;76.81
60240;BME280;46102;39.012;-7.064;2023-09-12T08:01:05;98481.38;;;20.43;76.58
60240;BME280;46102;39.012;-7.064;2023-09-12T08:03:07;98473.91;;;20.54;75.86
60240;BME280;46102;39.012;-7.064;2023-09-12T08:05:08;98470.78;;;20.59;75.21
60240;BME280;46102;39.012;-7.064;2023-09-12T08:07:09;98470.41;;;20.65;75.19
60240;BME280;46102;39.012;-7.064;2023-09-12T08:09:10;98482.44;;;20.76;74.86
60240;BME280;46102;39.012;-7.064;2023-09-12T08:11:11;98479.72;;;20.83;74.77
60240;BME280;46102;39.012;-7.064;2023-09-12T08:13:11;98481.75;;;20.90;73.87
60240;BME280;46102;39.012;-7.064;2023-09-12T08:15:12;98481.81;;;20.97;73.60
60240;BME280;46102;39.012;-7.064;2023-09-12T08:17:14;98478.69;;;21.06;73.48
60240;BME280;46102;39.012;-7.064;2023-09-12T08:19:15;98481.50;;;21.16;72.88
60240;BME280;46102;39.012;-7.064;2023-09-12T08:21:15;98483.19;;;21.28;72.69
60240;BME280;46102;39.012;-7.064;2023-09-12T08:23:16;98490.78;;;21.38;72.58
60240;BME280;46102;39.012;-7.064;2023-09-12T08:25:17;98495.53;;;21.34;72.33
60240;BME280;46102;39.012;-7.064;2023-09-12T08:27:18;98495.53;;;21.31;72.57
60240;BME280;46102;39.012;-7.064;2023-09-12T08:29:19;98500.31;;;21.27;72.45
60240;BME280;46102;39.012;-7.064;2023-09-12T08:31:20;98503.88;;;21.27;72.12
60240;BME280;46102;39.012;-7.064;2023-09-12T08:33:20;98498.78;;;21.40;71.80
60240;BME280;46102;39.012;-7.064;2023-09-12T08:35:21;98494.91;;;21.55;71.60
60240;BME280;46102;39.012;-7.064;2023-09-12T08:37:22;98497.75;;;21.77;70.60
60240;BME280;46102;39.012;-7.064;2023-09-12T08:39:25;98491.03;;;21.99;69.35
60240;BME280;46102;39.012;-7.064;2023-09-12T08:41:26;98495.13;;;22.23;68.00
60240;BME280;46102;39.012;-7.064;2023-09-12T08:43:26;98489.56;;;22.41;67.32
60240;BME280;46102;39.012;-7.064;2023-09-12T08:45:27;98496.34;;;22.62;66.39
60240;BME280;46102;39.012;-7.064;2023-09-12T08:47:28;98495.53;;;22.76;65.88
60240;BME280;46102;39.012;-7.064;2023-09-12T08:49:29;98498.75;;;22.89;65.25
60240;BME280;46102;39.012;-7.064;2023-09-12T08:51:30;98497.94;;;22.95;64.62
60240;BME280;46102;39.012;-7.064;2023-09-12T08:53:32;98509.13;;;23.10;64.69
60240;BME280;46102;39.012;-7.064;2023-09-12T08:55:34;98498.72;;;23.24;64.20
60240;BME280;46102;39.012;-7.064;2023-09-12T08:57:40;98499.84;;;23.45;63.59
60240;BME280;46102;39.012;-7.064;2023-09-12T08:59:43;98492.97;;;23.64;62.47
60240;BME280;46102;39.012;-7.064;2023-09-12T09:01:44;98500.94;;;23.80;61.95
60240;BME280;46102;39.012;-7.064;2023-09-12T09:03:46;98492.44;;;23.98;61.12
60240;BME280;46102;39.012;-7.064;2023-09-12T09:05:48;98503.56;;;24.12;60.90
60240;BME280;46102;39.012;-7.064;2023-09-12T09:07:51;98497.47;;;24.24;60.43
60240;BME280;46102;39.012;-7.064;2023-09-12T09:09:52;98497.81;;;24.37;59.91
60240;BME280;46102;39.012;-7.064;2023-09-12T09:11:54;98496.47;;;24.56;59.21
60240;BME280;46102;39.012;-7.064;2023-09-12T09:13:55;98496.81;;;24.65;58.41
60240;BME280;46102;39.012;-7.064;2023-09-12T09:16:12;98497.50;;;24.77;57.66
60240;BME280;46102;39.012;-7.064;2023-09-12T09:18:13;98498.19;;;24.91;57.24
60240;BME280;46102;39.012;-7.064;2023-09-12T09:20:33;98496.06;;;25.06;56.33
60240;BME280;46102;39.012;-7.064;2023-09-12T09:22:37;98495.09;;;25.24;56.15
60240;BME280;46102;39.012;-7.064;2023-09-12T09:24:38;98494.56;;;25.36;55.76
60240;BME280;46102;39.012;-7.064;2023-09-12T09:28:44;98492.72;;;25.57;54.95
60240;BME280;46102;39.012;-7.064;2023-09-12T09:30:48;98489.34;;;25.69;54.39
60240;BME280;46102;39.012;-7.064;2023-09-12T09:32:54;98496.50;;;25.73;53.86
60240;BME280;46102;39.012;-7.064;2023-09-12T09:34:55;98494.44;;;25.81;53.49
60240;BME280;46102;39.012;-7.064;2023-09-12T09:36:56;98499.50;;;25.93;53.12
60240;BME280;46102;39.012;-7.064;2023-09-12T09:38:57;98499.34;;;26.04;53.13
60240;BME280;46102;39.012;-7.064;2023-09-12T09:41:00;98491.03;;;26.24;53.12
60240;BME280;46102;39.012;-7.064;2023-09-12T09:43:02;98497.97;;;26.43;52.14
60240;BME280;46102;39.012;-7.064;2023-09-12T09:45:04;98494.19;;;26.57;51.72
60240;BME280;46102;39.012;-7.064;2023-09-12T09:47:05;98495.28;;;26.63;50.77
60240;BME280;46102;39.012;-7.064;2023-09-12T09:49:10;98498.25;;;26.79;50.76
60240;BME280;46102;39.012;-7.064;2023-09-12T09:51:13;98498.16;;;26.83;50.34
60240;BME280;46102;39.012;-7.064;2023-09-12T09:53:14;98505.31;;;26.88;49.92
60240;BME280;46102;39.012;-7.064;2023-09-12T09:55:15;98499.16;;;26.96;49.35
60240;BME280;46102;39.012;-7.064;2023-09-12T09:57:16;98494.91;;;27.08;49.24
60240;BME280;46102;39.012;-7.064;2023-09-12T09:59:19;98497.25;;;27.13;49.07
60240;BME280;46102;39.012;-7.064;2023-09-12T10:01:28;98501.09;;;27.23;49.11
60240;BME280;46102;39.012;-7.064;2023-09-12T10:03:30;98494.25;;;27.24;48.84
60240;BME280;46102;39.012;-7.064;2023-09-12T10:05:33;98495.50;;;27.19;48.56
60240;BME280;46102;39.012;-7.064;2023-09-12T10:07:37;98503.16;;;27.19;48.28
60240;BME280;46102;39.012;-7.064;2023-09-12T10:09:39;98495.91;;;27.22;48.61
60240;BME280;46102;39.012;-7.064;2023-09-12T10:11:43;98497.59;;;27.39;48.35
60240;BME280;46102;39.012;-7.064;2023-09-12T10:13:53;98503.50;;;27.65;48.27
60240;BME280;46102;39.012;-7.064;2023-09-12T10:15:55;98496.16;;;27.91;47.22
60240;BME280;46102;39.012;-7.064;2023-09-12T10:17:58;98508.34;;;28.04;45.52
60240;BME280;46102;39.012;-7.064;2023-09-12T10:20:03;98508.63;;;28.10;45.74
60240;BME280;46102;39.012;-7.064;2023-09-12T10:22:14;98505.19;;;28.18;45.28
60240;BME280;46102;39.012;-7.064;2023-09-12T10:24:19;98512.81;;;28.38;45.24
60240;BME280;46102;39.012;-7.064;2023-09-12T10:26:22;98499.19;;;28.53;44.81
60240;BME280;46102;39.012;-7.064;2023-09-12T10:28:24;98502.28;;;28.58;44.04
60240;BME280;46102;39.012;-7.064;2023-09-12T10:30:27;98513.50;;;28.62;43.63
60240;BME280;46102;39.012;-7.064;2023-09-12T10:32:28;98511.53;;;28.59;43.29
60240;BME280;46102;39.012;-7.064;2023-09-12T10:34:32;98512.69;;;28.61;43.00
60240;BME280;46102;39.012;-7.064;2023-09-12T10:36:33;98506.63;;;28.63;42.66
60240;BME280;46102;39.012;-7.064;2023-09-12T10:38:42;98508.00;;;28.55;42.64
60240;BME280;46102;39.012;-7.064;2023-09-12T10:40:45;98512.63;;;28.65;42.61
60240;BME280;46102;39.012;-7.064;2023-09-12T10:42:48;98516.50;;;28.71;41.63
60240;BME280;46102;39.012;-7.064;2023-09-12T10:44:50;98509.78;;;28.81;40.56
60240;BME280;46102;39.012;-7.064;2023-09-12T10:46:52;98509.16;;;28.90;39.94
60240;BME280;46102;39.012;-7.064;2023-09-12T10:48:55;98512.97;;;28.83;40.04
60240;BME280;46102;39.012;-7.064;2023-09-12T10:51:00;98516.75;;;28.77;37.58
60240;BME280;46102;39.012;-7.064;2023-09-12T10:53:14;98511.28;;;28.86;37.31
60240;BME280;46102;39.012;-7.064;2023-09-12T10:55:18;98511.38;;;28.99;37.80
60240;BME280;46102;39.012;-7.064;2023-09-12T10:57:19;98508.09;;;29.17;36.43